sensor_id;sensor_type;location;lat;lon;timestamp;P1;durP1;ratioP1;P2;durP2;ratioP2
36291;SDS011;22327;51.208;6.418;2024-01-15T00:02:54;46.75;;;19.88;;
36291;SDS011;22327;51.208;6.418;2024-01-15T00:05:54;54.13;;;21.48;;
36291;SDS011;22327;51.208;6.418;2024-01-15T00:08:55;36.88;;;14.85;;
36291;SDS011;22327;51.208;6.418;2024-01-15T00:11:55;51.75;;;19.85;;
36291;SDS011;22327;51.208;6.418;2024-01-15T00:14:56;33.75;;;13.20;;
36291;SDS011;22327;51.208;6.418;2024-01-15T00:17:56;55.47;;;21.98;;
36291;SDS011;22327;51.208;6.418;2024-01-15T00:20:57;52.83;;;20.95;;
36291;SDS011;22327;51.208;6.418;2024-01-15T00:23:57;60.17;;;21.75;;
36291;SDS011;22327;51.208;6.418;2024-01-15T00:26:58;60.85;;;21.80;;
36291;SDS011;22327;51.208;6.418;2024-01-15T00:29:58;62.72;;;23.48;;
36291;SDS011;22327;51.208;6.418;2024-01-15T00:32:59;59.22;;;22.13;;
36291;SDS011;22327;51.208;6.418;2024-01-15T00:36:01;56.50;;;22.10;;
36291;SDS011;22327;51.208;6.418;2024-01-15T00:39:01;55.85;;;21.38;;
36291;SDS011;22327;51.208;6.418;2024-01-15T00:42:02;56.50;;;19.88;;
36291;SDS011;22327;51.208;6.418;2024-01-15T00:45:04;51.22;;;20.02;;
36291;SDS011;22327;51.208;6.418;2024-01-15T00:48:06;49.67;;;19.30;;
36291;SDS011;22327;51.208;6.418;2024-01-15T00:51:07;54.00;;;19.77;;
36291;SDS011;22327;51.208;6.418;2024-01-15T00:54:08;59.13;;;20.75;;
36291;SDS011;22327;51.208;6.418;2024-01-15T00:57:08;48.35;;;19.23;;
36291;SDS011;22327;51.208;6.418;2024-01-15T01:00:09;56.95;;;19.55;;
36291;SDS011;22327;51.208;6.418;2024-01-15T01:03:10;46.45;;;17.08;;
36291;SDS011;22327;51.208;6.418;2024-01-15T01:06:10;53.90;;;20.13;;
36291;SDS011;22327;51.208;6.418;2024-01-15T01:09:11;51.40;;;20.38;;
36291;SDS011;22327;51.208;6.418;2024-01-15T01:12:11;53.95;;;18.52;;
36291;SDS011;22327;51.208;6.418;2024-01-15T01:15:12;55.22;;;20.02;;
36291;SDS011;22327;51.208;6.418;2024-01-15T01:18:12;56.85;;;20.98;;
36291;SDS011;22327;51.208;6.418;2024-01-15T01:21:13;54.88;;;19.50;;
36291;SDS011;22327;51.208;6.418;2024-01-15T01:24:14;52.53;;;20.23;;
36291;SDS011;22327;51.208;6.418;2024-01-15T01:27:14;44.03;;;18.65;;
36291;SDS011;22327;51.208;6.418;2024-01-15T01:30:15;48.22;;;18.95;;
36291;SDS011;22327;51.208;6.418;2024-01-15T01:33:15;50.72;;;19.80;;
36291;SDS011;22327;51.208;6.418;2024-01-15T01:36:16;44.80;;;19.23;;
36291;SDS011;22327;51.208;6.418;2024-01-15T01:39:16;45.22;;;19.15;;
36291;SDS011;22327;51.208;6.418;2024-01-15T01:42:17;45.17;;;18.08;;
36291;SDS011;22327;51.208;6.418;2024-01-15T01:45:17;42.65;;;17.23;;
36291;SDS011;22327;51.208;6.418;2024-01-15T01:48:18;49.58;;;18.65;;
36291;SDS011;22327;51.208;6.418;2024-01-15T01:51:18;33.80;;;15.50;;
36291;SDS011;22327;51.208;6.418;2024-01-15T01:54:21;38.80;;;14.52;;
36291;SDS011;22327;51.208;6.418;2024-01-15T01:57:22;36.40;;;16.52;;
36291;SDS011;22327;51.208;6.418;2024-01-15T02:00:23;44.55;;;15.85;;
36291;SDS011;22327;51.208;6.418;2024-01-15T02:03:24;34.60;;;15.43;;
36291;SDS011;22327;51.208;6.418;2024-01-15T02:06:26;37.47;;;15.98;;
36291;SDS011;22327;51.208;6.418;2024-01-15T02:09:27;34.30;;;16.52;;
36291;SDS011;22327;51.208;6.418;2024-01-15T02:12:27;36.15;;;16.50;;
36291;SDS011;22327;51.208;6.418;2024-01-15T02:15:28;34.55;;;15.50;;
36291;SDS011;22327;51.208;6.418;2024-01-15T02:18:28;39.88;;;16.83;;
36291;SDS011;22327;51.208;6.418;2024-01-15T02:21:29;39.83;;;16.40;;
36291;SDS011;22327;51.208;6.418;2024-01-15T02:24:31;44.33;;;17.48;;
36291;SDS011;22327;51.208;6.418;2024-01-15T02:27:32;38.53;;;16.30;;
36291;SDS011;22327;51.208;6.418;2024-01-15T02:30:32;32.42;;;15.50;;
36291;SDS011;22327;51.208;6.418;2024-01-15T02:33:38;37.67;;;15.52;;
36291;SDS011;22327;51.208;6.418;2024-01-15T02:36:39;33.55;;;13.60;;
36291;SDS011;22327;51.208;6.418;2024-01-15T02:39:39;30.70;;;13.38;;
36291;SDS011;22327;51.208;6.418;2024-01-15T02:42:40;28.67;;;11.68;;
36291;SDS011;22327;51.208;6.418;2024-01-15T02:45:40;31.30;;;13.43;;
36291;SDS011;22327;51.208;6.418;2024-01-15T02:48:41;25.02;;;11.82;;
36291;SDS011;22327;51.208;6.418;2024-01-15T02:51:41;33.63;;;14.85;;
36291;SDS011;22327;51.208;6.418;2024-01-15T02:54:42;30.27;;;12.88;;
36291;SDS011;22327;51.208;6.418;2024-01-15T02:57:42;25.38;;;12.35;;
36291;SDS011;22327;51.208;6.418;2024-01-15T03:00:43;31.20;;;14.25;;
36291;SDS011;22327;51.208;6.418;2024-01-15T03:03:43;26.73;;;12.27;;
36291;SDS011;22327;51.208;6.418;2024-01-15T03:06:44;28.35;;;13.52;;
36291;SDS011;22327;51.208;6.418;2024-01-15T03:09:44;20.92;;;10.80;;
36291;SDS011;22327;51.208;6.418;2024-01-15T03:12:45;26.75;;;12.75;;
36291;SDS011;22327;51.208;6.418;2024-01-15T03:15:45;22.25;;;11.73;;
36291;SDS011;22327;51.208;6.418;2024-01-15T03:18:46;32.80;;;14.75;;
36291;SDS011;22327;51.208;6.418;2024-01-15T03:21:47;32.30;;;14.23;;
36291;SDS011;22327;51.208;6.418;2024-01-15T03:24:47;25.40;;;13.02;;
36291;SDS011;22327;51.208;6.418;2024-01-15T03:27:48;28.77;;;13.45;;
36291;SDS011;22327;51.208;6.418;2024-01-15T03:30:48;19.65;;;9.98;;
36291;SDS011;22327;51.208;6.418;2024-01-15T03:33:49;26.52;;;12.77;;
36291;SDS011;22327;51.208;6.418;2024-01-15T03:36:49;27.35;;;12.40;;
36291;SDS011;22327;51.208;6.418;2024-01-15T03:39:50;22.15;;;9.52;;
36291;SDS011;22327;51.208;6.418;2024-01-15T03:42:50;22.60;;;12.20;;
36291;SDS011;22327;51.208;6.418;2024-01-15T03:45:51;26.20;;;12.15;;
36291;SDS011;22327;51.208;6.418;2024-01-15T03:48:51;25.95;;;12.00;;
36291;SDS011;22327;51.208;6.418;2024-01-15T03:51:52;17.73;;;8.90;;
36291;SDS011;22327;51.208;6.418;2024-01-15T03:54:52;16.98;;;8.32;;
36291;SDS011;22327;51.208;6.418;2024-01-15T03:57:53;19.10;;;8.48;;
36291;SDS011;22327;51.208;6.418;2024-01-15T04:00:53;22.27;;;10.23;;
36291;SDS011;22327;51.208;6.418;2024-01-15T04:03:54;19.40;;;9.50;;
36291;SDS011;22327;51.208;6.418;2024-01-15T04:06:55;20.27;;;10.80;;
36291;SDS011;22327;51.208;6.418;2024-01-15T04:09:55;23.35;;;11.10;;
36291;SDS011;22327;51.208;6.418;2024-01-15T04:12:56;23.75;;;11.30;;
36291;SDS011;22327;51.208;6.418;2024-01-15T04:15:57;18.83;;;11.48;;
36291;SDS011;22327;51.208;6.418;2024-01-15T04:18:57;19.13;;;9.50;;
36291;SDS011;22327;51.208;6.418;2024-01-15T04:21:58;17.35;;;9.52;;
36291;SDS011;22327;51.208;6.418;2024-01-15T04:24:58;19.40;;;9.80;;
36291;SDS011;22327;51.208;6.418;2024-01-15T04:27:59;19.83;;;9.90;;
36291;SDS011;22327;51.208;6.418;2024-01-15T04:30:59;22.95;;;11.60;;
36291;SDS011;22327;51.208;6.418;2024-01-15T04:34:00;20.55;;;11.55;;
36291;SDS011;22327;51.208;6.418;2024-01-15T04:37:00;19.90;;;10.43;;
36291;SDS011;22327;51.208;6.418;2024-01-15T04:40:02;20.48;;;10.02;;
36291;SDS011;22327;51.208;6.418;2024-01-15T04:43:03;10.60;;;5.78;;
36291;SDS011;22327;51.208;6.418;2024-01-15T04:46:05;20.98;;;9.80;;
36291;SDS011;22327;51.208;6.418;2024-01-15T04:49:06;18.40;;;9.02;;
36291;SDS011;22327;51.208;6.418;2024-01-15T04:52:07;23.30;;;9.35;;
36291;SDS011;22327;51.208;6.418;2024-01-15T04:55:10;14.45;;;7.53;;
36291;SDS011;22327;51.208;6.418;2024-01-15T04:58:10;16.48;;;8.27;;
36291;SDS011;22327;51.208;6.418;2024-01-15T05:01:11;21.77;;;9.02;;
36291;SDS011;22327;51.208;6.418;2024-01-15T05:04:11;22.15;;;9.30;;
36291;SDS011;22327;51.208;6.418;2024-01-15T05:07:12;19.38;;;9.63;;
36291;SDS011;22327;51.208;6.418;2024-01-15T05:10:12;18.65;;;9.88;;
36291;SDS011;22327;51.208;6.418;2024-01-15T05:13:13;12.65;;;8.02;;
36291;SDS011;22327;51.208;6.418;2024-01-15T05:16:13;15.80;;;8.75;;
36291;SDS011;22327;51.208;6.418;2024-01-15T05:19:14;14.15;;;8.73;;
36291;SDS011;22327;51.208;6.418;2024-01-15T05:22:14;15.57;;;7.63;;
36291;SDS011;22327;51.208;6.418;2024-01-15T05:25:15;16.17;;;8.57;;
36291;SDS011;22327;51.208;6.418;2024-01-15T05:28:15;13.52;;;7.75;;
36291;SDS011;22327;51.208;6.418;2024-01-15T05:31:16;16.85;;;9.35;;
36291;SDS011;22327;51.208;6.418;2024-01-15T05:34:16;18.90;;;8.40;;
36291;SDS011;22327;51.208;6.418;2024-01-15T05:37:17;14.07;;;7.22;;
36291;SDS011;22327;51.208;6.418;2024-01-15T05:40:17;14.05;;;6.85;;
36291;SDS011;22327;51.208;6.418;2024-01-15T05:43:18;13.38;;;8.35;;
36291;SDS011;22327;51.208;6.418;2024-01-15T05:46:19;15.40;;;7.70;;
36291;SDS011;22327;51.208;6.418;2024-01-15T05:49:19;17.92;;;7.47;;
36291;SDS011;22327;51.208;6.418;2024-01-15T05:52:20;13.10;;;6.90;;
36291;SDS011;22327;51.208;6.418;2024-01-15T05:55:21;13.38;;;7.05;;
36291;SDS011;22327;51.208;6.418;2024-01-15T05:58:22;9.80;;;6.85;;
36291;SDS011;22327;51.208;6.418;2024-01-15T06:01:22;8.70;;;4.65;;
36291;SDS011;22327;51.208;6.418;2024-01-15T06:04:23;11.00;;;7.30;;
36291;SDS011;22327;51.208;6.418;2024-01-15T06:07:24;14.18;;;6.97;;
36291;SDS011;22327;51.208;6.418;2024-01-15T06:10:24;11.02;;;6.43;;
36291;SDS011;22327;51.208;6.418;2024-01-15T06:13:25;10.90;;;5.80;;
36291;SDS011;22327;51.208;6.418;2024-01-15T06:16:25;12.27;;;7.80;;
36291;SDS011;22327;51.208;6.418;2024-01-15T06:19:26;14.95;;;8.35;;
36291;SDS011;22327;51.208;6.418;2024-01-15T06:22:27;16.20;;;8.88;;
36291;SDS011;22327;51.208;6.418;2024-01-15T06:25:27;14.45;;;9.25;;
36291;SDS011;22327;51.208;6.418;2024-01-15T06:28:28;16.77;;;9.30;;
36291;SDS011;22327;51.208;6.418;2024-01-15T06:31:28;15.85;;;9.35;;
36291;SDS011;22327;51.208;6.418;2024-01-15T06:34:29;14.25;;;9.48;;
36291;SDS011;22327;51.208;6.418;2024-01-15T06:37:29;17.55;;;9.68;;
36291;SDS011;22327;51.208;6.418;2024-01-15T06:40:30;16.02;;;7.95;;
36291;SDS011;22327;51.208;6.418;2024-01-15T06:43:30;19.45;;;9.85;;
36291;SDS011;22327;51.208;6.418;2024-01-15T06:46:31;17.42;;;9.43;;
36291;SDS011;22327;51.208;6.418;2024-01-15T06:49:31;21.88;;;10.90;;
36291;SDS011;22327;51.208;6.418;2024-01-15T06:52:32;18.88;;;9.23;;
36291;SDS011;22327;51.208;6.418;2024-01-15T06:55:32;19.33;;;10.45;;
36291;SDS011;22327;51.208;6.418;2024-01-15T06:58:33;19.77;;;11.43;;
36291;SDS011;22327;51.208;6.418;2024-01-15T07:01:33;23.15;;;10.63;;
36291;SDS011;22327;51.208;6.418;2024-01-15T07:04:34;16.63;;;9.68;;
36291;SDS011;22327;51.208;6.418;2024-01-15T07:07:34;19.50;;;9.43;;
36291;SDS011;22327;51.208;6.418;2024-01-15T07:10:35;17.48;;;9.52;;
36291;SDS011;22327;51.208;6.418;2024-01-15T07:13:36;16.00;;;8.15;;
36291;SDS011;22327;51.208;6.418;2024-01-15T07:16:37;18.88;;;9.85;;
36291;SDS011;22327;51.208;6.418;2024-01-15T07:19:38;13.25;;;8.13;;
36291;SDS011;22327;51.208;6.418;2024-01-15T07:22:38;17.38;;;9.18;;
36291;SDS011;22327;51.208;6.418;2024-01-15T07:25:39;13.65;;;8.50;;
36291;SDS011;22327;51.208;6.418;2024-01-15T07:28:39;16.33;;;8.85;;
36291;SDS011;22327;51.208;6.418;2024-01-15T07:31:40;16.27;;;9.20;;
36291;SDS011;22327;51.208;6.418;2024-01-15T07:34:47;17.20;;;9.90;;
36291;SDS011;22327;51.208;6.418;2024-01-15T07:37:47;19.83;;;11.02;;
36291;SDS011;22327;51.208;6.418;2024-01-15T07:40:48;18.20;;;10.63;;
36291;SDS011;22327;51.208;6.418;2024-01-15T07:43:49;16.48;;;9.65;;
36291;SDS011;22327;51.208;6.418;2024-01-15T07:46:50;19.92;;;10.70;;
36291;SDS011;22327;51.208;6.418;2024-01-15T07:49:50;17.50;;;9.75;;
36291;SDS011;22327;51.208;6.418;2024-01-15T07:52:51;15.73;;;9.57;;
36291;SDS011;22327;51.208;6.418;2024-01-15T07:55:53;16.73;;;9.82;;
36291;SDS011;22327;51.208;6.418;2024-01-15T07:58:53;15.32;;;9.90;;
36291;SDS011;22327;51.208;6.418;2024-01-15T08:01:54;15.02;;;8.27;;
36291;SDS011;22327;51.208;6.418;2024-01-15T08:04:54;18.38;;;10.00;;
36291;SDS011;22327;51.208;6.418;2024-01-15T08:07:55;19.63;;;10.52;;
36291;SDS011;22327;51.208;6.418;2024-01-15T08:10:55;18.52;;;10.75;;
36291;SDS011;22327;51.208;6.418;2024-01-15T08:13:56;21.83;;;10.23;;
36291;SDS011;22327;51.208;6.418;2024-01-15T08:16:56;19.92;;;10.00;;
36291;SDS011;22327;51.208;6.418;2024-01-15T08:19:57;22.27;;;10.80;;
36291;SDS011;22327;51.208;6.418;2024-01-15T08:22:59;20.00;;;9.30;;
36291;SDS011;22327;51.208;6.418;2024-01-15T08:25:59;19.38;;;9.98;;
36291;SDS011;22327;51.208;6.418;2024-01-15T08:29:00;17.60;;;9.43;;
36291;SDS011;22327;51.208;6.418;2024-01-15T08:32:00;22.30;;;10.35;;
36291;SDS011;22327;51.208;6.418;2024-01-15T08:35:01;24.80;;;12.48;;
36291;SDS011;22327;51.208;6.418;2024-01-15T08:38:04;21.83;;;11.38;;
36291;SDS011;22327;51.208;6.418;2024-01-15T08:41:04;24.38;;;11.50;;
36291;SDS011;22327;51.208;6.418;2024-01-15T08:44:05;21.27;;;11.82;;
36291;SDS011;22327;51.208;6.418;2024-01-15T08:47:05;24.77;;;13.23;;
36291;SDS011;22327;51.208;6.418;2024-01-15T08:50:06;26.35;;;13.13;;
36291;SDS011;22327;51.208;6.418;2024-01-15T08:53:10;27.85;;;13.63;;
36291;SDS011;22327;51.208;6.418;2024-01-15T08:56:10;26.77;;;13.43;;
36291;SDS011;22327;51.208;6.418;2024-01-15T08:59:11;27.77;;;14.38;;
36291;SDS011;22327;51.208;6.418;2024-01-15T09:02:11;28.80;;;14.43;;
36291;SDS011;22327;51.208;6.418;2024-01-15T09:05:12;26.25;;;14.02;;
36291;SDS011;22327;51.208;6.418;2024-01-15T09:08:12;24.50;;;13.65;;
36291;SDS011;22327;51.208;6.418;2024-01-15T09:11:13;21.55;;;11.70;;
36291;SDS011;22327;51.208;6.418;2024-01-15T09:14:14;22.23;;;12.10;;
36291;SDS011;22327;51.208;6.418;2024-01-15T09:17:14;22.58;;;11.82;;
36291;SDS011;22327;51.208;6.418;2024-01-15T09:20:15;18.63;;;10.35;;
36291;SDS011;22327;51.208;6.418;2024-01-15T09:23:16;14.40;;;8.35;;
36291;SDS011;22327;51.208;6.418;2024-01-15T09:26:17;15.63;;;8.80;;
36291;SDS011;22327;51.208;6.418;2024-01-15T09:29:17;14.45;;;8.30;;
36291;SDS011;22327;51.208;6.418;2024-01-15T09:32:18;13.98;;;8.65;;
36291;SDS011;22327;51.208;6.418;2024-01-15T09:35:18;15.88;;;6.90;;
36291;SDS011;22327;51.208;6.418;2024-01-15T09:38:19;10.98;;;7.45;;
36291;SDS011;22327;51.208;6.418;2024-01-15T09:41:20;10.93;;;6.32;;
36291;SDS011;22327;51.208;6.418;2024-01-15T09:44:21;11.45;;;6.10;;
36291;SDS011;22327;51.208;6.418;2024-01-15T09:47:21;12.82;;;6.25;;
36291;SDS011;22327;51.208;6.418;2024-01-15T09:50:22;9.45;;;5.70;;
36291;SDS011;22327;51.208;6.418;2024-01-15T09:53:23;7.85;;;4.82;;
36291;SDS011;22327;51.208;6.418;2024-01-15T09:56:25;7.32;;;4.97;;
36291;SDS011;22327;51.208;6.418;2024-01-15T09:59:25;7.53;;;4.30;;
36291;SDS011;22327;51.208;6.418;2024-01-15T10:02:28;7.75;;;4.43;;
36291;SDS011;22327;51.208;6.418;2024-01-15T10:05:28;6.75;;;4.10;;
36291;SDS011;22327;51.208;6.418;2024-01-15T10:08:29;5.97;;;3.40;;
36291;SDS011;22327;51.208;6.418;2024-01-15T10:11:29;7.47;;;3.38;;
36291;SDS011;22327;51.208;6.418;2024-01-15T10:14:31;5.75;;;3.10;;
36291;SDS011;22327;51.208;6.418;2024-01-15T10:17:32;8.02;;;2.88;;
36291;SDS011;22327;51.208;6.418;2024-01-15T10:20:33;5.03;;;3.13;;
36291;SDS011;22327;51.208;6.418;2024-01-15T10:23:33;4.82;;;2.60;;
36291;SDS011;22327;51.208;6.418;2024-01-15T10:26:34;3.95;;;2.10;;
36291;SDS011;22327;51.208;6.418;2024-01-15T10:29:34;4.13;;;2.20;;
36291;SDS011;22327;51.208;6.418;2024-01-15T10:32:36;2.95;;;1.42;;
36291;SDS011;22327;51.208;6.418;2024-01-15T10:35:37;4.20;;;1.98;;
36291;SDS011;22327;51.208;6.418;2024-01-15T10:38:38;5.28;;;1.60;;
36291;SDS011;22327;51.208;6.418;2024-01-15T10:41:39;4.38;;;1.70;;
36291;SDS011;22327;51.208;6.418;2024-01-15T10:44:40;3.08;;;1.52;;
36291;SDS011;22327;51.208;6.418;2024-01-15T10:47:43;3.03;;;1.08;;
36291;SDS011;22327;51.208;6.418;2024-01-15T10:50:44;2.42;;;1.10;;
36291;SDS011;22327;51.208;6.418;2024-01-15T10:53:46;1.85;;;0.93;;
36291;SDS011;22327;51.208;6.418;2024-01-15T10:56:47;2.45;;;1.40;;
36291;SDS011;22327;51.208;6.418;2024-01-15T10:59:48;3.70;;;2.40;;
36291;SDS011;22327;51.208;6.418;2024-01-15T11:02:48;3.70;;;2.10;;
36291;SDS011;22327;51.208;6.418;2024-01-15T11:05:50;3.85;;;2.15;;
36291;SDS011;22327;51.208;6.418;2024-01-15T11:08:53;3.97;;;2.47;;
36291;SDS011;22327;51.208;6.418;2024-01-15T11:12:08;3.88;;;2.58;;
36291;SDS011;22327;51.208;6.418;2024-01-15T11:15:10;4.40;;;3.08;;
36291;SDS011;22327;51.208;6.418;2024-01-15T11:18:20;6.28;;;3.95;;
36291;SDS011;22327;51.208;6.418;2024-01-15T11:21:22;5.95;;;4.82;;
36291;SDS011;22327;51.208;6.418;2024-01-15T11:27:42;7.70;;;4.63;;
36291;SDS011;22327;51.208;6.418;2024-01-15T11:30:43;5.97;;;3.83;;
36291;SDS011;22327;51.208;6.418;2024-01-15T11:33:49;5.47;;;3.40;;
36291;SDS011;22327;51.208;6.418;2024-01-15T11:39:54;5.25;;;3.35;;
36291;SDS011;22327;51.208;6.418;2024-01-15T11:42:55;5.38;;;3.72;;
36291;SDS011;22327;51.208;6.418;2024-01-15T11:45:56;5.40;;;3.92;;
36291;SDS011;22327;51.208;6.418;2024-01-15T11:48:59;7.88;;;5.10;;
36291;SDS011;22327;51.208;6.418;2024-01-15T11:52:05;8.20;;;5.90;;
36291;SDS011;22327;51.208;6.418;2024-01-15T11:55:24;9.75;;;5.60;;
36291;SDS011;22327;51.208;6.418;2024-01-15T11:58:29;8.63;;;5.95;;
36291;SDS011;22327;51.208;6.418;2024-01-15T12:01:30;9.13;;;6.68;;
36291;SDS011;22327;51.208;6.418;2024-01-15T12:04:31;8.98;;;5.90;;
36291;SDS011;22327;51.208;6.418;2024-01-15T12:07:32;7.35;;;6.40;;
36291;SDS011;22327;51.208;6.418;2024-01-15T12:10:33;11.60;;;7.50;;
36291;SDS011;22327;51.208;6.418;2024-01-15T12:13:33;9.50;;;6.88;;
36291;SDS011;22327;51.208;6.418;2024-01-15T12:16:34;11.85;;;6.72;;
36291;SDS011;22327;51.208;6.418;2024-01-15T12:19:34;10.20;;;6.45;;
36291;SDS011;22327;51.208;6.418;2024-01-15T12:22:35;10.55;;;4.90;;
36291;SDS011;22327;51.208;6.418;2024-01-15T12:25:36;8.73;;;5.32;;
36291;SDS011;22327;51.208;6.418;2024-01-15T12:28:37;8.05;;;6.07;;
36291;SDS011;22327;51.208;6.418;2024-01-15T12:31:39;7.28;;;4.47;;
36291;SDS011;22327;51.208;6.418;2024-01-15T12:34:40;6.22;;;4.18;;
36291;SDS011;22327;51.208;6.418;2024-01-15T12:37:40;10.05;;;5.30;;
36291;SDS011;22327;51.208;6.418;2024-01-15T12:40:43;7.93;;;3.63;;
36291;SDS011;22327;51.208;6.418;2024-01-15T12:43:46;9.70;;;4.35;;
36291;SDS011;22327;51.208;6.418;2024-01-15T12:46:47;6.70;;;3.90;;
36291;SDS011;22327;51.208;6.418;2024-01-15T12:49:48;5.97;;;4.13;;
36291;SDS011;22327;51.208;6.418;2024-01-15T12:52:53;4.78;;;3.38;;
36291;SDS011;22327;51.208;6.418;2024-01-15T12:55:54;4.78;;;3.13;;
36291;SDS011;22327;51.208;6.418;2024-01-15T12:58:54;4.75;;;3.40;;
36291;SDS011;22327;51.208;6.418;2024-01-15T13:01:55;6.47;;;2.70;;
36291;SDS011;22327;51.208;6.418;2024-01-15T13:04:56;4.00;;;1.95;;
36291;SDS011;22327;51.208;6.418;2024-01-15T13:07:59;1.77;;;1.67;;
36291;SDS011;22327;51.208;6.418;2024-01-15T13:11:00;3.35;;;2.30;;
36291;SDS011;22327;51.208;6.418;2024-01-15T13:14:00;3.30;;;1.25;;
36291;SDS011;22327;51.208;6.418;2024-01-15T13:17:01;2.05;;;1.85;;
36291;SDS011;22327;51.208;6.418;2024-01-15T13:20:03;2.55;;;1.20;;
36291;SDS011;22327;51.208;6.418;2024-01-15T13:23:04;3.75;;;1.80;;
36291;SDS011;22327;51.208;6.418;2024-01-15T13:26:05;1.75;;;1.33;;
36291;SDS011;22327;51.208;6.418;2024-01-15T13:29:05;3.58;;;1.55;;
36291;SDS011;22327;51.208;6.418;2024-01-15T13:32:06;3.50;;;1.63;;
36291;SDS011;22327;51.208;6.418;2024-01-15T13:35:07;4.90;;;1.88;;
36291;SDS011;22327;51.208;6.418;2024-01-15T13:38:09;3.17;;;1.60;;
36291;SDS011;22327;51.208;6.418;2024-01-15T13:41:11;2.05;;;1.30;;
36291;SDS011;22327;51.208;6.418;2024-01-15T13:44:11;1.63;;;1.35;;
36291;SDS011;22327;51.208;6.418;2024-01-15T13:47:12;3.40;;;1.30;;
36291;SDS011;22327;51.208;6.418;2024-01-15T13:50:13;5.05;;;1.17;;
36291;SDS011;22327;51.208;6.418;2024-01-15T13:53:14;2.97;;;1.90;;
36291;SDS011;22327;51.208;6.418;2024-01-15T13:56:15;2.17;;;1.15;;
36291;SDS011;22327;51.208;6.418;2024-01-15T13:59:15;3.25;;;1.65;;
36291;SDS011;22327;51.208;6.418;2024-01-15T14:02:16;2.55;;;1.30;;
36291;SDS011;22327;51.208;6.418;2024-01-15T14:05:16;1.42;;;1.02;;
36291;SDS011;22327;51.208;6.418;2024-01-15T14:08:17;2.20;;;1.20;;
36291;SDS011;22327;51.208;6.418;2024-01-15T14:11:18;2.78;;;1.42;;
36291;SDS011;22327;51.208;6.418;2024-01-15T14:14:18;1.67;;;1.45;;
36291;SDS011;22327;51.208;6.418;2024-01-15T14:17:19;1.95;;;1.20;;
36291;SDS011;22327;51.208;6.418;2024-01-15T14:20:19;2.30;;;1.00;;
36291;SDS011;22327;51.208;6.418;2024-01-15T14:23:20;1.77;;;1.20;;
36291;SDS011;22327;51.208;6.418;2024-01-15T14:26:21;1.23;;;1.13;;
36291;SDS011;22327;51.208;6.418;2024-01-15T14:29:21;2.67;;;1.33;;
36291;SDS011;22327;51.208;6.418;2024-01-15T14:32:25;2.50;;;1.10;;
36291;SDS011;22327;51.208;6.418;2024-01-15T14:35:25;4.55;;;1.38;;
36291;SDS011;22327;51.208;6.418;2024-01-15T14:38:26;2.28;;;1.27;;
36291;SDS011;22327;51.208;6.418;2024-01-15T14:41:26;2.38;;;1.58;;
36291;SDS011;22327;51.208;6.418;2024-01-15T14:44:27;3.40;;;2.30;;
36291;SDS011;22327;51.208;6.418;2024-01-15T14:47:28;7.07;;;4.60;;
36291;SDS011;22327;51.208;6.418;2024-01-15T14:50:29;3.25;;;2.28;;
36291;SDS011;22327;51.208;6.418;2024-01-15T14:53:31;3.25;;;2.20;;
36291;SDS011;22327;51.208;6.418;2024-01-15T14:56:32;4.53;;;2.75;;
36291;SDS011;22327;51.208;6.418;2024-01-15T14:59:32;2.75;;;1.50;;
36291;SDS011;22327;51.208;6.418;2024-01-15T15:02:33;5.05;;;1.80;;
36291;SDS011;22327;51.208;6.418;2024-01-15T15:05:35;1.88;;;1.73;;
36291;SDS011;22327;51.208;6.418;2024-01-15T15:08:36;3.75;;;1.52;;
36291;SDS011;22327;51.208;6.418;2024-01-15T15:11:37;2.83;;;1.50;;
36291;SDS011;22327;51.208;6.418;2024-01-15T15:14:37;2.17;;;1.27;;
36291;SDS011;22327;51.208;6.418;2024-01-15T15:17:38;3.58;;;1.17;;
36291;SDS011;22327;51.208;6.418;2024-01-15T15:20:39;3.75;;;3.45;;
36291;SDS011;22327;51.208;6.418;2024-01-15T15:23:39;1.60;;;1.50;;
36291;SDS011;22327;51.208;6.418;2024-01-15T15:26:40;1.85;;;1.50;;
36291;SDS011;22327;51.208;6.418;2024-01-15T15:29:41;3.15;;;1.90;;
36291;SDS011;22327;51.208;6.418;2024-01-15T15:32:41;2.00;;;1.58;;
36291;SDS011;22327;51.208;6.418;2024-01-15T15:35:42;2.80;;;1.85;;
36291;SDS011;22327;51.208;6.418;2024-01-15T15:38:42;5.32;;;2.53;;
36291;SDS011;22327;51.208;6.418;2024-01-15T15:41:43;4.40;;;2.85;;
36291;SDS011;22327;51.208;6.418;2024-01-15T15:44:44;4.32;;;2.33;;
36291;SDS011;22327;51.208;6.418;2024-01-15T15:47:48;3.28;;;2.22;;
36291;SDS011;22327;51.208;6.418;2024-01-15T15:50:49;4.88;;;2.40;;
36291;SDS011;22327;51.208;6.418;2024-01-15T15:53:50;5.03;;;3.03;;
36291;SDS011;22327;51.208;6.418;2024-01-15T15:56:51;5.78;;;2.13;;
36291;SDS011;22327;51.208;6.418;2024-01-15T15:59:52;3.83;;;3.13;;
36291;SDS011;22327;51.208;6.418;2024-01-15T16:02:55;4.15;;;2.42;;
36291;SDS011;22327;51.208;6.418;2024-01-15T16:05:56;5.47;;;2.92;;
36291;SDS011;22327;51.208;6.418;2024-01-15T16:08:57;10.63;;;4.82;;
36291;SDS011;22327;51.208;6.418;2024-01-15T16:11:58;15.48;;;5.38;;
36291;SDS011;22327;51.208;6.418;2024-01-15T16:15:00;6.68;;;4.32;;
36291;SDS011;22327;51.208;6.418;2024-01-15T16:18:01;9.75;;;4.88;;
36291;SDS011;22327;51.208;6.418;2024-01-15T16:21:02;8.82;;;4.93;;
36291;SDS011;22327;51.208;6.418;2024-01-15T16:24:02;8.52;;;4.97;;
36291;SDS011;22327;51.208;6.418;2024-01-15T16:27:03;5.82;;;4.13;;
36291;SDS011;22327;51.208;6.418;2024-01-15T16:30:06;8.93;;;4.07;;
36291;SDS011;22327;51.208;6.418;2024-01-15T16:33:08;6.40;;;4.05;;
36291;SDS011;22327;51.208;6.418;2024-01-15T16:36:09;7.55;;;3.80;;
36291;SDS011;22327;51.208;6.418;2024-01-15T16:39:09;13.68;;;4.60;;
36291;SDS011;22327;51.208;6.418;2024-01-15T16:42:10;8.93;;;4.57;;
36291;SDS011;22327;51.208;6.418;2024-01-15T16:45:11;8.27;;;4.35;;
36291;SDS011;22327;51.208;6.418;2024-01-15T16:48:12;7.63;;;3.47;;
36291;SDS011;22327;51.208;6.418;2024-01-15T16:51:12;6.65;;;3.03;;
36291;SDS011;22327;51.208;6.418;2024-01-15T16:54:13;9.27;;;3.63;;
36291;SDS011;22327;51.208;6.418;2024-01-15T16:57:13;9.70;;;3.53;;
36291;SDS011;22327;51.208;6.418;2024-01-15T17:00:14;7.72;;;3.17;;
36291;SDS011;22327;51.208;6.418;2024-01-15T17:03:15;8.13;;;3.33;;
36291;SDS011;22327;51.208;6.418;2024-01-15T17:06:16;10.15;;;3.70;;
36291;SDS011;22327;51.208;6.418;2024-01-15T17:09:16;5.70;;;3.35;;
36291;SDS011;22327;51.208;6.418;2024-01-15T17:12:17;6.38;;;3.25;;
36291;SDS011;22327;51.208;6.418;2024-01-15T17:15:17;6.38;;;3.60;;
36291;SDS011;22327;51.208;6.418;2024-01-15T17:18:18;11.45;;;3.72;;
36291;SDS011;22327;51.208;6.418;2024-01-15T17:21:18;11.93;;;4.72;;
36291;SDS011;22327;51.208;6.418;2024-01-15T17:24:19;7.50;;;3.83;;
36291;SDS011;22327;51.208;6.418;2024-01-15T17:27:20;5.55;;;3.30;;
36291;SDS011;22327;51.208;6.418;2024-01-15T17:30:20;13.13;;;4.47;;
36291;SDS011;22327;51.208;6.418;2024-01-15T17:33:21;11.18;;;4.22;;
36291;SDS011;22327;51.208;6.418;2024-01-15T17:36:21;7.88;;;3.70;;
36291;SDS011;22327;51.208;6.418;2024-01-15T17:39:22;11.10;;;4.85;;
36291;SDS011;22327;51.208;6.418;2024-01-15T17:42:22;9.70;;;3.38;;
36291;SDS011;22327;51.208;6.418;2024-01-15T17:45:23;8.98;;;3.78;;
36291;SDS011;22327;51.208;6.418;2024-01-15T17:48:26;9.35;;;4.18;;
36291;SDS011;22327;51.208;6.418;2024-01-15T17:51:27;12.02;;;4.60;;
36291;SDS011;22327;51.208;6.418;2024-01-15T17:54:27;8.45;;;4.22;;
36291;SDS011;22327;51.208;6.418;2024-01-15T17:57:30;8.55;;;3.72;;
36291;SDS011;22327;51.208;6.418;2024-01-15T18:00:30;11.48;;;4.35;;
36291;SDS011;22327;51.208;6.418;2024-01-15T18:03:31;7.40;;;4.00;;